Time,TemperatureF,DewpointF,PressureIn,WindDirection,WindDirectionDegrees,WindSpeedMPH,WindSpeedGustMPH,Humidity,HourlyPrecipIn,Conditions,Clouds,dailyrainin,SoftwareType,DateUTC
2013-04-08 00:00:00,47.6,46.0,30.01,ESE,116,19.0,22.0,94,0.00,,,0.00,LWC V2.10 B1813,2013-04-08 04:00:00,
2013-04-08 00:01:00,47.7,46.1,30.01,South,172,14.0,27.0,94,0.00,,,0.00,LWC V2.10 B1813,2013-04-08 04:01:00,
2013-04-08 00:06:00,47.6,46.0,30.01,SE,140,24.0,25.0,94,0.00,,,0.00,LWC V2.10 B1813,2013-04-08 04:06:00,
2013-04-08 00:09:00,47.7,46.1,30.01,South,188,20.0,21.0,94,0.00,,,0.00,LWC V2.10 B1813,2013-04-08 04:09:00,
2013-04-08 00:10:00,47.7,46.1,30.01,SSE,161,18.0,27.0,94,0.00,,,0.00,LWC V2.10 B1813,2013-04-08 04:10:00,
2013-04-08 00:20:00,33.7,19.7,30.05,WSW,248,7.0,12.0,56,0.00,,,0.00,LWC V2.10 B1813,2013-04-08 04:20:00,
2013-04-08 00:30:00,33.7,19.7,30.05,WSW,248,7.0,12.0,56,0.00,,,0.00,LWC V2.10 B1813,2013-04-08 04:30:00,
2013-04-08 00:40:00,33.7,19.7,30.05,WSW,248,7.0,12.0,56,0.00,,,0.00,LWC V2.10 B1813,2013-04-08 04:40:00,
2013-04-08 00:50:00,33.7,19.7,30.05,WSW,248,7.0,12.0,56,0.00,,,0.00,LWC V2.10 B1813,2013-04-08 04:50:00,
2013-04-08 01:00:00,33.7,19.7,30.05,WSW,248,7.0,12.0,56,0.00,,,0.00,LWC V2.10 B1813,2013-04-08 05:00:00,
2013-04-08 01:10:00,33.7,19.7,30.05,WSW,248,7.0,12.0,56,0.00,,,0.00,LWC V2.10 B1813,2013-04-08 05:10:00,
2013-04-08 01:20:00,33.7,19.7,30.05,WSW,248,7.0,12.0,56,0.00,,,0.00,LWC V2.10 B1813,2013-04-08 05:20:00,
2013-04-08 01:30:00,33.7,19.7,30.05,WSW,248,7.0,12.0,56,0.00,,,0.00,LWC V2.10 B1813,2013-04-08 05:30:00,
2013-04-08 01:40:00,33.7,19.7,30.05,WSW,248,7.0,12.0,56,0.00,,,0.00,LWC V2.10 B1813,2013-04-08 05:40:00,
2013-04-08 01:50:00,33.7,19.7,30.05,WSW,248,7.0,12.0,56,0.00,,,0.00,LWC V2.10 B1813,2013-04-08 05:50:00,
2013-04-08 02:00:00,33.7,19.7,30.05,WSW,248,7.0,12.0,56,0.00,,,0.00,LWC V2.10 B1813,2013-04-08 06:00:00,
2013-04-08 02:10:00,33.7,19.7,30.05,WSW,248,7.0,12.0,56,0.00,,,0.00,LWC V2.10 B1813,2013-04-08 06:10:00,
2013-04-08 02:20:00,33.7,19.7,30.05,WSW,248,7.0,12.0,56,0.00,,,0.00,LWC V2.10 B1813,2013-04-08 06:20:00,
2013-04-08 02:30:00,33.7,19.7,30.05,WSW,248,7.0,12.0,56,0.00,,,0.00,LWC V2.10 B1813,2013-04-08 06:30:00,
2013-04-08 02:40:00,33.7,19.7,30.05,WSW,248,7.0,12.0,56,0.00,,,0.00,LWC V2.10 B1813,2013-04-08 06:40:00,
2013-04-08 02:50:00,33.7,19.7,30.05,WSW,248,7.0,12.0,56,0.00,,,0.00,LWC V2.10 B1813,2013-04-08 06:50:00,
2013-04-08 03:00:00,33.7,19.7,30.05,WSW,248,7.0,12.0,56,0.00,,,0.00,LWC V2.10 B1813,2013-04-08 07:00:00,
2013-04-08 03:10:00,33.7,19.7,30.05,WSW,248,7.0,12.0,56,0.00,,,0.00,LWC V2.10 B1813,2013-04-08 07:10:00,
2013-04-08 03:20:00,33.7,19.7,30.05,WSW,248,7.0,12.0,56,0.00,,,0.00,LWC V2.10 B1813,2013-04-08 07:20:00,
2013-04-08 03:30:00,33.7,19.7,30.05,WSW,248,7.0,12.0,56,0.00,,,0.00,LWC V2.10 B1813,2013-04-08 07:30:00,
2013-04-08 03:40:00,33.7,19.7,30.05,WSW,248,7.0,12.0,56,0.00,,,0.00,LWC V2.10 B1813,2013-04-08 07:40:00,
2013-04-08 03:50:00,33.7,19.7,30.05,WSW,248,7.0,12.0,56,0.00,,,0.00,LWC V2.10 B1813,2013-04-08 07:50:00,
2013-04-08 04:00:00,33.7,19.7,30.05,WSW,248,7.0,12.0,56,0.00,,,0.00,LWC V2.10 B1813,2013-04-08 08:00:00,
2013-04-08 04:10:00,33.7,19.7,30.05,WSW,248,7.0,12.0,56,0.00,,,0.00,LWC V2.10 B1813,2013-04-08 08:10:00,
2013-04-08 04:20:00,33.7,19.7,30.05,WSW,248,7.0,12.0,56,0.00,,,0.00,LWC V2.10 B1813,2013-04-08 08:20:00,
2013-04-08 04:30:00,33.7,19.7,30.05,WSW,248,7.0,12.0,56,0.00,,,0.00,LWC V2.10 B1813,2013-04-08 08:30:00,
2013-04-08 04:40:00,33.7,19.7,30.05,WSW,248,7.0,12.0,56,0.00,,,0.00,LWC V2.10 B1813,2013-04-08 08:40:00,
2013-04-08 04:50:00,33.7,19.7,30.05,WSW,248,7.0,12.0,56,0.00,,,0.00,LWC V2.10 B1813,2013-04-08 08:50:00,
2013-04-08 05:00:00,33.7,19.7,30.05,WSW,248,7.0,12.0,56,0.00,,,0.00,LWC V2.10 B1813,2013-04-08 09:00:00,
2013-04-08 05:10:00,33.7,19.7,30.05,WSW,248,7.0,12.0,56,0.00,,,0.00,LWC V2.10 B1813,2013-04-08 09:10:00,
2013-04-08 05:20:00,33.7,19.7,30.05,WSW,248,7.0,12.0,56,0.00,,,0.00,LWC V2.10 B1813,2013-04-08 09:20:00,
2013-04-08 05:30:00,33.7,19.7,30.05,WSW,248,7.0,12.0,56,0.00,,,0.00,LWC V2.10 B1813,2013-04-08 09:30:00,
2013-04-08 05:40:00,33.7,19.7,30.05,WSW,248,7.0,12.0,56,0.00,,,0.00,LWC V2.10 B1813,2013-04-08 09:40:00,
2013-04-08 05:50:00,33.7,19.7,30.05,WSW,248,7.0,12.0,56,0.00,,,0.00,LWC V2.10 B1813,2013-04-08 09:50:00,
2013-04-08 06:03:00,46.9,45.3,29.98,SSE,167,6.0,11.0,94,0.00,,,0.00,LWC V2.10 B1813,2013-04-08 10:03:00,
2013-04-08 06:06:00,46.8,45.2,29.98,South,177,7.0,9.0,94,0.00,,,0.00,LWC V2.10 B1813,2013-04-08 10:06:00,
2013-04-08 06:11:00,46.7,45.1,29.98,South,178,4.0,7.0,94,0.00,,,0.00,LWC V2.10 B1813,2013-04-08 10:11:00,
2013-04-08 06:16:00,46.7,45.1,29.98,South,185,5.0,8.0,94,0.00,,,0.00,LWC V2.10 B1813,2013-04-08 10:16:00,
2013-04-08 06:21:00,46.5,44.9,29.98,South,188,3.0,6.0,94,0.00,,,0.00,LWC V2.10 B1813,2013-04-08 10:21:00,
2013-04-08 06:26:00,46.5,44.9,29.98,South,179,6.0,8.0,94,0.00,,,0.00,LWC V2.10 B1813,2013-04-08 10:26:00,
2013-04-08 06:31:00,46.5,44.9,29.98,SSW,199,5.0,7.0,94,0.00,,,0.00,LWC V2.10 B1813,2013-04-08 10:31:00,
2013-04-08 06:36:00,46.5,44.9,29.99,SSW,194,2.0,5.0,94,0.00,,,0.00,LWC V2.10 B1813,2013-04-08 10:36:00,
2013-04-08 06:41:00,46.4,44.8,29.99,SSW,193,5.0,5.0,94,0.00,,,0.00,LWC V2.10 B1813,2013-04-08 10:41:00,
2013-04-08 06:46:00,46.4,44.8,29.99,SSW,192,3.0,4.0,94,0.00,,,0.00,LWC V2.10 B1813,2013-04-08 10:46:00,
2013-04-08 06:51:00,46.3,44.7,29.99,SSW,205,3.0,4.0,94,0.00,,,0.00,LWC V2.10 B1813,2013-04-08 10:51:00,
2013-04-08 06:56:00,46.3,44.9,29.99,SSW,204,3.0,4.0,95,0.00,,,0.00,LWC V2.10 B1813,2013-04-08 10:56:00,
2013-04-08 07:01:00,46.3,44.9,30.00,SSW,203,2.0,4.0,95,0.00,,,0.00,LWC V2.10 B1813,2013-04-08 11:01:00,
2013-04-08 07:06:00,46.3,44.9,30.01,SW,216,3.0,3.0,95,0.00,,,0.00,LWC V2.10 B1813,2013-04-08 11:06:00,
2013-04-08 07:11:00,46.3,44.9,30.01,SW,217,2.0,3.0,95,0.00,,,0.00,LWC V2.10 B1813,2013-04-08 11:11:00,
2013-04-08 07:16:00,46.3,44.9,30.01,WSW,250,3.0,4.0,95,0.00,,,0.00,LWC V2.10 B1813,2013-04-08 11:16:00,
2013-04-08 07:21:00,46.5,45.1,30.02,WSW,250,3.0,4.0,95,0.00,,,0.00,LWC V2.10 B1813,2013-04-08 11:21:00,
2013-04-08 07:26:00,46.7,45.3,30.02,WSW,253,1.0,3.0,95,0.00,,,0.00,LWC V2.10 B1813,2013-04-08 11:26:00,
2013-04-08 07:31:00,46.8,45.4,30.02,WSW,253,1.0,3.0,95,0.00,,,0.00,LWC V2.10 B1813,2013-04-08 11:31:00,
2013-04-08 07:36:00,46.7,45.3,30.02,WSW,253,3.0,5.0,95,0.00,,,0.00,LWC V2.10 B1813,2013-04-08 11:36:00,
2013-04-08 07:42:00,46.8,45.4,30.03,WSW,253,0.0,3.0,95,0.00,,,0.00,LWC V2.10 B1813,2013-04-08 11:42:00,
2013-04-08 07:47:00,46.9,45.5,30.03,WSW,254,3.0,5.0,95,0.00,,,0.00,LWC V2.10 B1813,2013-04-08 11:47:00,
2013-04-08 07:52:00,47.0,45.6,30.03,WSW,254,0.0,4.0,95,0.00,,,0.00,LWC V2.10 B1813,2013-04-08 11:52:00,
2013-04-08 07:57:00,47.5,46.1,30.03,WSW,254,3.0,5.0,95,0.00,,,0.00,LWC V2.10 B1813,2013-04-08 11:57:00,
2013-04-08 08:02:00,47.6,46.0,30.03,West,275,3.0,5.0,94,0.00,,,0.00,LWC V2.10 B1813,2013-04-08 12:02:00,
2013-04-08 08:07:00,47.7,46.1,30.03,NW,304,0.0,5.0,94,0.00,,,0.00,LWC V2.10 B1813,2013-04-08 12:07:00,
2013-04-08 08:12:00,47.9,46.3,30.03,West,267,2.0,4.0,94,0.00,,,0.00,LWC V2.10 B1813,2013-04-08 12:12:00,
2013-04-08 08:17:00,47.9,46.0,30.03,WSW,253,0.0,7.0,93,0.00,,,0.00,LWC V2.10 B1813,2013-04-08 12:17:00,
2013-04-08 08:22:00,48.3,47.8,30.03,WSW,252,1.0,2.0,98,0.00,,,0.00,LWC V2.10 B1813,2013-04-08 12:22:00,
2013-04-08 08:27:00,48.5,46.6,30.03,WSW,252,3.0,4.0,93,0.00,,,0.00,LWC V2.10 B1813,2013-04-08 12:27:00,
2013-04-08 08:32:00,48.5,46.3,30.03,WSW,256,0.0,1.0,92,0.00,,,0.00,LWC V2.10 B1813,2013-04-08 12:32:00,
2013-04-08 08:37:00,48.7,46.8,30.03,West,259,0.0,6.0,93,0.00,,,0.00,LWC V2.10 B1813,2013-04-08 12:37:00,
2013-04-08 08:42:00,48.5,46.3,30.03,WSW,238,2.0,6.0,92,0.00,,,0.00,LWC V2.10 B1813,2013-04-08 12:42:00,
2013-04-08 08:47:00,48.5,46.3,30.04,SW,232,5.0,6.0,92,0.00,,,0.00,LWC V2.10 B1813,2013-04-08 12:47:00,
2013-04-08 08:52:00,48.5,46.3,30.03,SW,234,1.0,2.0,92,0.00,,,0.00,LWC V2.10 B1813,2013-04-08 12:52:00,
2013-04-08 08:57:00,48.8,46.6,30.03,West,259,2.0,5.0,92,0.00,,,0.00,LWC V2.10 B1813,2013-04-08 12:57:00,
2013-04-08 09:02:00,49.0,46.8,30.03,West,269,4.0,8.0,92,0.00,,,0.00,LWC V2.10 B1813,2013-04-08 13:02:00,
2013-04-08 09:07:00,49.2,47.0,30.03,West,265,3.0,6.0,92,0.00,,,0.00,LWC V2.10 B1813,2013-04-08 13:07:00,
2013-04-08 09:12:00,49.6,47.4,30.03,WSW,248,0.0,4.0,92,0.00,,,0.00,LWC V2.10 B1813,2013-04-08 13:12:00,
2013-04-08 09:17:00,49.8,47.3,30.03,WSW,245,1.0,5.0,91,0.00,,,0.00,LWC V2.10 B1813,2013-04-08 13:17:00,
2013-04-08 09:22:00,50.4,47.9,30.03,SW,217,2.0,3.0,91,0.00,,,0.00,LWC V2.10 B1813,2013-04-08 13:22:00,
2013-04-08 09:27:00,50.8,48.0,30.03,WSW,245,1.0,5.0,90,0.00,,,0.00,LWC V2.10 B1813,2013-04-08 13:27:00,
2013-04-08 09:32:00,51.0,47.9,30.03,SSW,213,2.0,5.0,89,0.00,,,0.00,LWC V2.10 B1813,2013-04-08 13:32:00,
2013-04-08 09:37:00,51.2,48.1,30.03,WSW,240,0.0,3.0,89,0.00,,,0.00,LWC V2.10 B1813,2013-04-08 13:37:00,
2013-04-08 09:42:00,51.5,48.1,30.03,SW,232,0.0,4.0,88,0.00,,,0.00,LWC V2.10 B1813,2013-04-08 13:42:00,
2013-04-08 09:47:00,52.1,48.7,30.04,West,262,2.0,4.0,88,0.00,,,0.00,LWC V2.10 B1813,2013-04-08 13:47:00,
2013-04-08 09:52:00,52.6,48.8,30.04,SW,217,2.0,5.0,87,0.00,,,0.00,LWC V2.10 B1813,2013-04-08 13:52:00,
2013-04-08 09:57:00,53.0,48.9,30.04,West,274,0.0,2.0,86,0.00,,,0.00,LWC V2.10 B1813,2013-04-08 13:57:00,
2013-04-08 10:02:00,53.4,48.7,30.04,West,276,3.0,3.0,84,0.00,,,0.00,LWC V2.10 B1813,2013-04-08 14:02:00,
2013-04-08 10:07:00,53.1,47.8,30.05,WNW,295,5.0,5.0,82,0.00,,,0.00,LWC V2.10 B1813,2013-04-08 14:07:00,
2013-04-08 10:12:00,53.0,48.0,30.04,NW,306,2.0,2.0,83,0.00,,,0.00,LWC V2.10 B1813,2013-04-08 14:12:00,
2013-04-08 10:17:00,53.1,47.8,30.05,WNW,293,3.0,5.0,82,0.00,,,0.00,LWC V2.10 B1813,2013-04-08 14:17:00,
2013-04-08 10:22:00,52.8,47.5,30.04,West,277,0.0,4.0,82,0.00,,,0.00,LWC V2.10 B1813,2013-04-08 14:22:00,
2013-04-08 10:27:00,52.7,47.4,30.05,West,275,0.0,4.0,82,0.00,,,0.00,LWC V2.10 B1813,2013-04-08 14:27:00,
2013-04-08 10:32:00,53.1,48.1,30.05,West,275,1.0,1.0,83,0.00,,,0.00,LWC V2.10 B1813,2013-04-08 14:32:00,
2013-04-08 10:37:00,53.6,48.2,30.05,SW,232,0.0,2.0,82,0.00,,,0.00,LWC V2.10 B1813,2013-04-08 14:37:00,
2013-04-08 10:42:00,54.1,48.1,30.05,West,266,4.0,7.0,80,0.00,,,0.00,LWC V2.10 B1813,2013-04-08 14:42:00,
2013-04-08 10:47:00,53.5,47.5,30.05,West,261,2.0,6.0,80,0.00,,,0.00,LWC V2.10 B1813,2013-04-08 14:47:00,
2013-04-08 10:52:00,53.2,47.2,30.06,South,169,1.0,5.0,80,0.00,,,0.00,LWC V2.10 B1813,2013-04-08 14:52:00,
2013-04-08 10:57:00,53.6,47.6,30.05,WSW,242,2.0,4.0,80,0.00,,,0.00,LWC V2.10 B1813,2013-04-08 14:57:00,
2013-04-08 11:02:00,54.5,48.5,30.06,West,259,0.0,2.0,80,0.00,,,0.00,LWC V2.10 B1813,2013-04-08 15:02:00,
2013-04-08 11:07:00,55.1,48.0,30.06,SSW,194,2.0,4.0,77,0.00,,,0.00,LWC V2.10 B1813,2013-04-08 15:07:00,
2013-04-08 11:12:00,55.2,47.4,30.05,WSW,254,0.0,6.0,75,0.00,,,0.00,LWC V2.10 B1813,2013-04-08 15:12:00,
2013-04-08 11:17:00,55.7,47.9,30.05,SW,217,0.0,2.0,75,0.00,,,0.00,LWC V2.10 B1813,2013-04-08 15:17:00,
2013-04-08 11:22:00,56.3,47.8,30.05,SSW,208,0.0,3.0,73,0.00,,,0.00,LWC V2.10 B1813,2013-04-08 15:22:00,
2013-04-08 11:27:00,56.6,47.3,30.05,SW,223,0.0,1.0,71,0.00,,,0.00,LWC V2.10 B1813,2013-04-08 15:27:00,
2013-04-08 11:32:00,57.2,47.5,30.05,WSW,242,1.0,4.0,70,0.00,,,0.00,LWC V2.10 B1813,2013-04-08 15:32:00,
2013-04-08 11:37:00,57.2,47.9,30.06,SSE,166,4.0,4.0,71,0.00,,,0.00,LWC V2.10 B1813,2013-04-08 15:37:00,
2013-04-08 11:42:00,56.8,47.9,30.06,South,186,3.0,3.0,72,0.00,,,0.00,LWC V2.10 B1813,2013-04-08 15:42:00,
2013-04-08 11:47:00,55.6,46.7,30.05,SSE,161,6.0,7.0,72,0.00,,,0.00,LWC V2.10 B1813,2013-04-08 15:47:00,
2013-04-08 11:52:00,54.8,46.3,30.06,SSE,165,6.0,6.0,73,0.00,,,0.00,LWC V2.10 B1813,2013-04-08 15:52:00,
2013-04-08 11:57:00,54.8,46.3,30.05,SSE,161,6.0,7.0,73,0.00,,,0.00,LWC V2.10 B1813,2013-04-08 15:57:00,
2013-04-08 12:02:00,54.8,46.3,30.05,SSE,166,6.0,6.0,73,0.00,,,0.00,LWC V2.10 B1813,2013-04-08 16:02:00,
2013-04-08 12:07:00,55.0,46.9,30.05,SSE,165,5.0,5.0,74,0.00,,,0.00,LWC V2.10 B1813,2013-04-08 16:07:00,
2013-04-08 12:12:00,54.8,46.7,30.05,SSE,160,6.0,6.0,74,0.00,,,0.00,LWC V2.10 B1813,2013-04-08 16:12:00,
2013-04-08 12:17:00,54.6,46.5,30.05,SSE,153,7.0,7.0,74,0.00,,,0.00,LWC V2.10 B1813,2013-04-08 16:17:00,
2013-04-08 12:22:00,54.3,46.2,30.05,SSE,153,8.0,8.0,74,0.00,,,0.00,LWC V2.10 B1813,2013-04-08 16:22:00,
2013-04-08 12:27:00,54.0,45.5,30.05,SSE,154,7.0,10.0,73,0.00,,,0.00,LWC V2.10 B1813,2013-04-08 16:27:00,
2013-04-08 12:32:00,53.9,45.4,30.05,SE,144,8.0,10.0,73,0.00,,,0.00,LWC V2.10 B1813,2013-04-08 16:32:00,
2013-04-08 12:37:00,53.7,45.6,30.05,SE,142,6.0,10.0,74,0.00,,,0.00,LWC V2.10 B1813,2013-04-08 16:37:00,
2013-04-08 12:42:00,54.0,45.5,30.04,SSE,148,8.0,10.0,73,0.00,,,0.00,LWC V2.10 B1813,2013-04-08 16:42:00,
2013-04-08 12:47:00,54.6,46.1,30.05,SE,130,8.0,13.0,73,0.00,,,0.00,LWC V2.10 B1813,2013-04-08 16:47:00,
2013-04-08 12:52:00,54.8,46.7,30.05,SE,139,7.0,8.0,74,0.00,,,0.00,LWC V2.10 B1813,2013-04-08 16:52:00,
2013-04-08 12:57:00,55.1,46.6,30.05,East,98,6.0,11.0,73,0.00,,,0.00,LWC V2.10 B1813,2013-04-08 16:57:00,
2013-04-08 13:02:00,55.5,47.0,30.05,SSE,148,8.0,10.0,73,0.00,,,0.00,LWC V2.10 B1813,2013-04-08 17:02:00,
2013-04-08 13:07:00,55.5,46.6,30.05,SSE,161,8.0,11.0,72,0.00,,,0.00,LWC V2.10 B1813,2013-04-08 17:07:00,
2013-04-08 13:12:00,55.7,46.8,30.05,SSE,158,6.0,8.0,72,0.00,,,0.00,LWC V2.10 B1813,2013-04-08 17:12:00,
2013-04-08 13:17:00,56.0,47.1,30.05,SSE,147,6.0,8.0,72,0.00,,,0.00,LWC V2.10 B1813,2013-04-08 17:17:00,
2013-04-08 13:22:00,56.6,47.3,30.05,SSE,148,6.0,8.0,71,0.00,,,0.00,LWC V2.10 B1813,2013-04-08 17:22:00,
2013-04-08 13:27:00,56.6,47.3,30.05,SSE,163,6.0,7.0,71,0.00,,,0.00,LWC V2.10 B1813,2013-04-08 17:27:00,
2013-04-08 13:32:00,56.9,47.2,30.04,SSE,166,7.0,7.0,70,0.00,,,0.00,LWC V2.10 B1813,2013-04-08 17:32:00,
2013-04-08 13:37:00,57.4,47.3,30.04,SSE,155,2.0,5.0,69,0.00,,,0.00,LWC V2.10 B1813,2013-04-08 17:37:00,
2013-04-08 13:42:00,58.0,47.1,30.04,SSE,157,1.0,7.0,67,0.00,,,0.00,LWC V2.10 B1813,2013-04-08 17:42:00,
2013-04-08 13:47:00,58.6,48.1,30.04,South,172,4.0,5.0,68,0.00,,,0.00,LWC V2.10 B1813,2013-04-08 17:47:00,
2013-04-08 13:52:00,59.5,47.7,30.04,SSW,198,0.0,4.0,65,0.00,,,0.00,LWC V2.10 B1813,2013-04-08 17:52:00,
2013-04-08 13:57:00,60.3,47.6,30.04,SSW,211,0.0,6.0,63,0.00,,,0.00,LWC V2.10 B1813,2013-04-08 17:57:00,
2013-04-08 14:02:00,61.4,47.8,30.04,WSW,248,5.0,7.0,61,0.00,,,0.00,LWC V2.10 B1813,2013-04-08 18:02:00,
2013-04-08 14:07:00,62.3,47.3,30.04,WSW,245,3.0,4.0,58,0.00,,,0.00,LWC V2.10 B1813,2013-04-08 18:07:00,
2013-04-08 14:12:00,63.0,47.1,30.04,SSW,207,3.0,7.0,56,0.00,,,0.00,LWC V2.10 B1813,2013-04-08 18:12:00,
2013-04-08 14:17:00,63.1,46.2,30.03,WSW,257,11.0,11.0,54,0.00,,,0.00,LWC V2.10 B1813,2013-04-08 18:17:00,
2013-04-08 14:22:00,63.0,46.6,30.03,West,268,6.0,8.0,55,0.00,,,0.00,LWC V2.10 B1813,2013-04-08 18:22:00,
2013-04-08 14:27:00,63.6,46.2,30.03,WSW,237,5.0,7.0,53,0.00,,,0.00,LWC V2.10 B1813,2013-04-08 18:27:00,
2013-04-08 14:32:00,61.1,47.5,30.03,South,175,5.0,12.0,61,0.00,,,0.00,LWC V2.10 B1813,2013-04-08 18:32:00,
2013-04-08 14:37:00,58.7,47.4,30.03,SE,141,8.0,11.0,66,0.00,,,0.00,LWC V2.10 B1813,2013-04-08 18:37:00,
2013-04-08 14:42:00,57.9,47.8,30.03,SE,142,8.0,13.0,69,0.00,,,0.00,LWC V2.10 B1813,2013-04-08 18:42:00,
2013-04-08 14:47:00,57.7,47.6,30.03,SE,146,9.0,14.0,69,0.00,,,0.00,LWC V2.10 B1813,2013-04-08 18:47:00,
2013-04-08 14:52:00,57.7,48.4,30.02,South,188,3.0,8.0,71,0.00,,,0.00,LWC V2.10 B1813,2013-04-08 18:52:00,
2013-04-08 14:57:00,57.7,48.4,30.02,SSE,150,5.0,8.0,71,0.00,,,0.00,LWC V2.10 B1813,2013-04-08 18:57:00,
2013-04-08 15:02:00,56.9,48.0,30.02,SSE,155,8.0,11.0,72,0.00,,,0.00,LWC V2.10 B1813,2013-04-08 19:02:00,
2013-04-08 15:07:00,56.5,47.9,30.02,SSE,157,9.0,15.0,73,0.00,,,0.00,LWC V2.10 B1813,2013-04-08 19:07:00,
2013-04-08 15:12:00,56.4,48.2,30.02,SSE,155,9.0,13.0,74,0.00,,,0.00,LWC V2.10 B1813,2013-04-08 19:12:00,
2013-04-08 15:17:00,56.2,48.0,30.02,SE,142,13.0,13.0,74,0.00,,,0.00,LWC V2.10 B1813,2013-04-08 19:17:00,
2013-04-08 15:22:00,56.0,47.8,30.02,SSE,150,10.0,12.0,74,0.00,,,0.00,LWC V2.10 B1813,2013-04-08 19:22:00,
2013-04-08 15:27:00,55.9,48.1,30.02,SSE,161,11.0,13.0,75,0.00,,,0.00,LWC V2.10 B1813,2013-04-08 19:27:00,
2013-04-08 15:32:00,55.8,48.0,30.02,South,171,9.0,12.0,75,0.00,,,0.00,LWC V2.10 B1813,2013-04-08 19:32:00,
2013-04-08 15:37:00,55.9,48.1,30.02,SE,134,8.0,16.0,75,0.00,,,0.00,LWC V2.10 B1813,2013-04-08 19:37:00,
2013-04-08 15:42:00,56.3,48.1,30.02,South,169,13.0,14.0,74,0.00,,,0.00,LWC V2.10 B1813,2013-04-08 19:42:00,
2013-04-08 15:47:00,56.5,48.3,30.01,SSE,152,9.0,14.0,74,0.00,,,0.00,LWC V2.10 B1813,2013-04-08 19:47:00,
2013-04-08 15:52:00,56.4,48.2,30.01,SSE,151,10.0,12.0,74,0.00,,,0.00,LWC V2.10 B1813,2013-04-08 19:52:00,
2013-04-08 15:57:00,56.6,48.4,30.01,SE,140,7.0,12.0,74,0.00,,,0.00,LWC V2.10 B1813,2013-04-08 19:57:00,
2013-04-08 16:02:00,56.4,48.2,30.01,ESE,116,8.0,13.0,74,0.00,,,0.00,LWC V2.10 B1813,2013-04-08 20:02:00,
2013-04-08 16:07:00,56.8,48.6,30.01,SE,146,7.0,12.0,74,0.00,,,0.00,LWC V2.10 B1813,2013-04-08 20:07:00,
2013-04-08 16:12:00,56.9,48.3,30.01,SSE,151,9.0,15.0,73,0.00,,,0.00,LWC V2.10 B1813,2013-04-08 20:12:00,
2013-04-08 16:17:00,56.8,48.2,30.01,SSE,158,12.0,15.0,73,0.00,,,0.00,LWC V2.10 B1813,2013-04-08 20:17:00,
2013-04-08 16:22:00,56.9,48.3,30.01,SSE,159,10.0,15.0,73,0.00,,,0.00,LWC V2.10 B1813,2013-04-08 20:22:00,
2013-04-08 16:27:00,57.2,48.3,30.01,SSE,152,11.0,12.0,72,0.00,,,0.00,LWC V2.10 B1813,2013-04-08 20:27:00,
2013-04-08 16:32:00,57.1,48.5,30.00,SSE,165,9.0,13.0,73,0.00,,,0.00,LWC V2.10 B1813,2013-04-08 20:32:00,
2013-04-08 16:37:00,57.1,48.5,30.01,SE,134,11.0,13.0,73,0.00,,,0.00,LWC V2.10 B1813,2013-04-08 20:37:00,
2013-04-08 16:42:00,57.1,48.5,30.01,South,173,9.0,13.0,73,0.00,,,0.00,LWC V2.10 B1813,2013-04-08 20:42:00,
2013-04-08 16:47:00,56.8,48.2,30.01,SSE,159,8.0,14.0,73,0.00,,,0.00,LWC V2.10 B1813,2013-04-08 20:47:00,
2013-04-08 16:52:00,56.8,48.2,30.01,SSE,159,13.0,14.0,73,0.00,,,0.00,LWC V2.10 B1813,2013-04-08 20:52:00,
2013-04-08 16:57:00,56.5,48.3,30.01,SSE,148,8.0,11.0,74,0.00,,,0.00,LWC V2.10 B1813,2013-04-08 20:57:00,
2013-04-08 17:02:00,56.7,48.5,30.01,SSE,164,10.0,11.0,74,0.00,,,0.00,LWC V2.10 B1813,2013-04-08 21:02:00,
2013-04-08 17:07:00,56.3,48.1,30.01,SSE,154,6.0,11.0,74,0.00,,,0.00,LWC V2.10 B1813,2013-04-08 21:07:00,
2013-04-08 17:12:00,56.2,48.0,30.01,SSW,196,9.0,10.0,74,0.00,,,0.00,LWC V2.10 B1813,2013-04-08 21:12:00,
2013-04-08 17:17:00,56.0,48.2,30.02,SSE,154,7.0,14.0,75,0.00,,,0.00,LWC V2.10 B1813,2013-04-08 21:17:00,
2013-04-08 17:22:00,55.6,48.2,30.02,South,182,6.0,9.0,76,0.00,,,0.00,LWC V2.10 B1813,2013-04-08 21:22:00,
2013-04-08 17:27:00,55.7,48.3,30.02,SE,126,7.0,11.0,76,0.00,,,0.00,LWC V2.10 B1813,2013-04-08 21:27:00,
2013-04-08 17:32:00,55.7,48.3,30.02,SE,141,11.0,12.0,76,0.00,,,0.00,LWC V2.10 B1813,2013-04-08 21:32:00,
2013-04-08 17:37:00,55.4,48.3,30.02,SSE,160,6.0,12.0,77,0.00,,,0.00,LWC V2.10 B1813,2013-04-08 21:37:00,
2013-04-08 17:42:00,55.4,48.3,30.02,SSE,150,9.0,11.0,77,0.00,,,0.00,LWC V2.10 B1813,2013-04-08 21:42:00,
2013-04-08 17:47:00,54.6,47.9,30.02,SE,140,6.0,11.0,78,0.00,,,0.00,LWC V2.10 B1813,2013-04-08 21:47:00,
2013-04-08 17:52:00,54.3,47.9,30.02,South,170,6.0,11.0,79,0.00,,,0.00,LWC V2.10 B1813,2013-04-08 21:52:00,
2013-04-08 17:57:00,54.1,48.1,30.02,South,177,8.0,11.0,80,0.00,,,0.00,LWC V2.10 B1813,2013-04-08 21:57:00,
2013-04-08 18:02:00,54.0,48.0,30.02,SE,145,4.0,8.0,80,0.00,,,0.00,LWC V2.10 B1813,2013-04-08 22:02:00,
2013-04-08 18:07:00,53.9,47.9,30.02,SSE,152,5.0,8.0,80,0.00,,,0.00,LWC V2.10 B1813,2013-04-08 22:07:00,
2013-04-08 18:12:00,53.7,47.7,30.02,SSE,157,7.0,10.0,80,0.00,,,0.00,LWC V2.10 B1813,2013-04-08 22:12:00,
2013-04-08 18:17:00,53.5,47.5,30.03,SE,138,2.0,10.0,80,0.00,,,0.00,LWC V2.10 B1813,2013-04-08 22:17:00,
2013-04-08 18:22:00,53.3,47.6,30.03,SE,131,7.0,10.0,81,0.00,,,0.00,LWC V2.10 B1813,2013-04-08 22:22:00,
2013-04-08 18:27:00,53.1,47.4,30.03,SSE,157,6.0,6.0,81,0.00,,,0.00,LWC V2.10 B1813,2013-04-08 22:27:00,
2013-04-08 18:32:00,52.6,47.3,30.03,SSE,159,4.0,8.0,82,0.00,,,0.00,LWC V2.10 B1813,2013-04-08 22:32:00,
2013-04-08 18:37:00,52.2,47.2,30.03,South,189,3.0,6.0,83,0.00,,,0.00,LWC V2.10 B1813,2013-04-08 22:37:00,
2013-04-08 18:42:00,51.9,46.9,30.03,SSE,163,4.0,6.0,83,0.00,,,0.00,LWC V2.10 B1813,2013-04-08 22:42:00,
2013-04-08 18:47:00,51.5,46.8,30.03,SE,140,5.0,10.0,84,0.00,,,0.00,LWC V2.10 B1813,2013-04-08 22:47:00,
2013-04-08 18:52:00,51.4,47.0,30.03,South,175,6.0,7.0,85,0.00,,,0.00,LWC V2.10 B1813,2013-04-08 22:52:00,
2013-04-08 18:57:00,51.3,46.9,30.03,SSE,161,7.0,9.0,85,0.00,,,0.00,LWC V2.10 B1813,2013-04-08 22:57:00,
2013-04-08 19:02:00,51.1,46.7,30.03,SSE,159,6.0,12.0,85,0.00,,,0.00,LWC V2.10 B1813,2013-04-08 23:02:00,
2013-04-08 19:07:00,51.1,47.1,30.03,SSE,165,7.0,9.0,86,0.00,,,0.00,LWC V2.10 B1813,2013-04-08 23:07:00,
2013-04-08 19:12:00,51.0,47.0,30.03,SSE,153,8.0,11.0,86,0.00,,,0.00,LWC V2.10 B1813,2013-04-08 23:12:00,
2013-04-08 19:17:00,50.9,46.9,30.03,South,173,2.0,6.0,86,0.00,,,0.00,LWC V2.10 B1813,2013-04-08 23:17:00,
2013-04-08 19:22:00,50.8,46.8,30.03,South,173,1.0,5.0,86,0.00,,,0.00,LWC V2.10 B1813,2013-04-08 23:22:00,
2013-04-08 19:27:00,50.6,46.9,30.02,South,173,0.0,4.0,87,0.00,,,0.00,LWC V2.10 B1813,2013-04-08 23:27:00,
2013-04-08 19:32:00,50.5,46.8,30.02,South,172,5.0,5.0,87,0.00,,,0.00,LWC V2.10 B1813,2013-04-08 23:32:00,
2013-04-08 19:37:00,50.5,46.8,30.03,South,173,2.0,5.0,87,0.00,,,0.00,LWC V2.10 B1813,2013-04-08 23:37:00,
2013-04-08 19:42:00,50.3,46.9,30.03,South,173,2.0,5.0,88,0.00,,,0.00,LWC V2.10 B1813,2013-04-08 23:42:00,
2013-04-08 19:47:00,50.1,46.7,30.03,South,173,1.0,1.0,88,0.00,,,0.00,LWC V2.10 B1813,2013-04-08 23:47:00,
2013-04-08 19:52:00,50.0,46.6,30.03,South,173,0.0,2.0,88,0.00,,,0.00,LWC V2.10 B1813,2013-04-08 23:52:00,
2013-04-08 19:57:00,50.0,46.6,30.03,South,173,1.0,2.0,88,0.00,,,0.00,LWC V2.10 B1813,2013-04-08 23:57:00,
2013-04-08 20:02:00,50.1,46.7,30.03,South,173,0.0,2.0,88,0.00,,,0.00,LWC V2.10 B1813,2013-04-09 00:02:00,
2013-04-08 20:07:00,50.2,46.8,30.03,South,173,2.0,4.0,88,0.00,,,0.00,LWC V2.10 B1813,2013-04-09 00:07:00,
2013-04-08 20:12:00,50.3,46.6,30.03,SE,146,4.0,6.0,87,0.00,,,0.00,LWC V2.10 B1813,2013-04-09 00:12:00,
2013-04-08 20:17:00,50.6,46.9,30.03,SE,141,5.0,6.0,87,0.00,,,0.00,LWC V2.10 B1813,2013-04-09 00:17:00,
2013-04-08 20:22:00,50.6,46.6,30.03,SE,143,4.0,7.0,86,0.00,,,0.00,LWC V2.10 B1813,2013-04-09 00:22:00,
2013-04-08 20:27:00,50.6,46.6,30.04,SSE,163,5.0,7.0,86,0.00,,,0.00,LWC V2.10 B1813,2013-04-09 00:27:00,
2013-04-08 20:32:00,50.5,46.5,30.04,SSE,162,2.0,5.0,86,0.00,,,0.00,LWC V2.10 B1813,2013-04-09 00:32:00,
2013-04-08 20:37:00,50.3,46.6,30.04,SSE,163,5.0,7.0,87,0.00,,,0.00,LWC V2.10 B1813,2013-04-09 00:37:00,
2013-04-08 20:42:00,50.4,46.7,30.04,SSE,163,4.0,6.0,87,0.00,,,0.00,LWC V2.10 B1813,2013-04-09 00:42:00,
2013-04-08 20:47:00,50.3,46.6,30.05,SSE,164,4.0,7.0,87,0.00,,,0.00,LWC V2.10 B1813,2013-04-09 00:47:00,
2013-04-08 20:52:00,50.1,46.4,30.05,SSE,166,2.0,5.0,87,0.00,,,0.00,LWC V2.10 B1813,2013-04-09 00:52:00,
2013-04-08 20:57:00,49.8,46.1,30.05,SSE,165,4.0,5.0,87,0.00,,,0.00,LWC V2.10 B1813,2013-04-09 00:57:00,
2013-04-08 21:02:00,49.6,46.2,30.05,SSE,166,5.0,6.0,88,0.00,,,0.00,LWC V2.10 B1813,2013-04-09 01:02:00,
2013-04-08 21:07:00,49.5,46.4,30.04,SSE,165,4.0,6.0,89,0.00,,,0.00,LWC V2.10 B1813,2013-04-09 01:07:00,
2013-04-08 21:12:00,49.5,46.4,30.05,SSE,165,0.0,5.0,89,0.00,,,0.00,LWC V2.10 B1813,2013-04-09 01:12:00,
2013-04-08 21:17:00,49.7,46.6,30.04,SSE,164,4.0,4.0,89,0.00,,,0.00,LWC V2.10 B1813,2013-04-09 01:17:00,
2013-04-08 21:22:00,49.9,46.8,30.05,SSE,163,0.0,2.0,89,0.00,,,0.00,LWC V2.10 B1813,2013-04-09 01:22:00,
2013-04-08 21:27:00,50.1,46.7,30.05,SSE,163,0.0,4.0,88,0.00,,,0.00,LWC V2.10 B1813,2013-04-09 01:27:00,
2013-04-08 21:32:00,50.7,47.0,30.05,SSE,163,2.0,6.0,87,0.00,,,0.00,LWC V2.10 B1813,2013-04-09 01:32:00,
2013-04-08 21:37:00,50.9,46.9,30.05,SSE,163,1.0,4.0,86,0.00,,,0.00,LWC V2.10 B1813,2013-04-09 01:37:00,
2013-04-08 21:42:00,50.7,46.7,30.05,SSE,162,1.0,6.0,86,0.00,,,0.00,LWC V2.10 B1813,2013-04-09 01:42:00,
2013-04-08 21:47:00,50.6,46.6,30.04,SSE,166,4.0,8.0,86,0.00,,,0.00,LWC V2.10 B1813,2013-04-09 01:47:00,
2013-04-08 21:52:00,50.6,46.6,30.04,SE,141,1.0,7.0,86,0.00,,,0.00,LWC V2.10 B1813,2013-04-09 01:52:00,
2013-04-08 21:57:00,50.4,46.7,30.05,SE,136,5.0,7.0,87,0.00,,,0.00,LWC V2.10 B1813,2013-04-09 01:57:00,
2013-04-08 22:02:00,50.3,46.6,30.05,SE,137,2.0,5.0,87,0.00,,,0.00,LWC V2.10 B1813,2013-04-09 02:02:00,
2013-04-08 22:07:00,50.3,46.6,30.05,SE,137,1.0,6.0,87,0.00,,,0.00,LWC V2.10 B1813,2013-04-09 02:07:00,
2013-04-08 22:12:00,50.1,46.4,30.06,SE,137,4.0,4.0,87,0.00,,,0.00,LWC V2.10 B1813,2013-04-09 02:12:00,
2013-04-08 22:17:00,50.0,46.6,30.06,South,175,7.0,7.0,88,0.00,,,0.00,LWC V2.10 B1813,2013-04-09 02:17:00,
2013-04-08 22:22:00,49.8,46.4,30.06,SSE,157,6.0,7.0,88,0.00,,,0.00,LWC V2.10 B1813,2013-04-09 02:22:00,
2013-04-08 22:27:00,49.6,47.4,30.06,SSE,162,2.0,2.0,92,0.00,,,0.00,LWC V2.10 B1813,2013-04-09 02:27:00,
2013-04-08 22:32:00,49.5,46.4,30.06,SSE,148,1.0,7.0,89,0.00,,,0.00,LWC V2.10 B1813,2013-04-09 02:32:00,
2013-04-08 22:37:00,49.6,46.5,30.06,SE,132,4.0,7.0,89,0.00,,,0.00,LWC V2.10 B1813,2013-04-09 02:37:00,
2013-04-08 22:42:00,49.6,46.5,30.05,SE,126,4.0,8.0,89,0.00,,,0.00,LWC V2.10 B1813,2013-04-09 02:42:00,
2013-04-08 22:47:00,49.6,46.5,30.05,SE,126,5.0,7.0,89,0.00,,,0.00,LWC V2.10 B1813,2013-04-09 02:47:00,
2013-04-08 22:52:00,49.6,46.5,30.05,SE,126,5.0,6.0,89,0.00,,,0.00,LWC V2.10 B1813,2013-04-09 02:52:00,
2013-04-08 22:57:00,49.5,46.7,30.05,SE,126,5.0,6.0,90,0.00,,,0.00,LWC V2.10 B1813,2013-04-09 02:57:00,
2013-04-08 23:02:00,49.5,46.7,30.04,SE,132,4.0,8.0,90,0.00,,,0.00,LWC V2.10 B1813,2013-04-09 03:02:00,
2013-04-08 23:07:00,49.5,46.7,30.04,East,97,4.0,8.0,90,0.00,,,0.00,LWC V2.10 B1813,2013-04-09 03:07:00,
2013-04-08 23:12:00,49.7,46.9,30.03,East,90,7.0,9.0,90,0.00,,,0.00,LWC V2.10 B1813,2013-04-09 03:12:00,
2013-04-08 23:17:00,49.8,47.0,30.02,SSE,156,4.0,7.0,90,0.00,,,0.00,LWC V2.10 B1813,2013-04-09 03:17:00,
2013-04-08 23:22:00,49.8,46.7,30.02,ESE,102,1.0,8.0,89,0.00,,,0.00,LWC V2.10 B1813,2013-04-09 03:22:00,
2013-04-08 23:27:00,49.7,46.6,30.02,East,91,4.0,8.0,89,0.00,,,0.00,LWC V2.10 B1813,2013-04-09 03:27:00,
2013-04-08 23:32:00,49.6,46.8,30.03,ESE,117,4.0,7.0,90,0.00,,,0.00,LWC V2.10 B1813,2013-04-09 03:32:00,
2013-04-08 23:37:00,49.4,46.6,30.03,ESE,117,1.0,6.0,90,0.00,,,0.00,LWC V2.10 B1813,2013-04-09 03:37:00,
2013-04-08 23:42:00,49.3,46.5,30.03,ESE,117,2.0,6.0,90,0.00,,,0.00,LWC V2.10 B1813,2013-04-09 03:42:00,
2013-04-08 23:47:00,49.1,46.6,30.03,ESE,117,2.0,5.0,91,0.00,,,0.00,LWC V2.10 B1813,2013-04-09 03:47:00,
2013-04-08 23:52:00,49.1,46.6,30.03,ESE,117,0.0,5.0,91,0.00,,,0.00,LWC V2.10 B1813,2013-04-09 03:52:00,
2013-04-08 23:57:00,49.1,46.6,30.03,ESE,120,7.0,7.0,91,0.00,,,0.00,LWC V2.10 B1813,2013-04-09 03:57:00,